Hazelton, West Virginia
Current Conditions -  °F | °C
As of 5:05 PM on Tuesday 25 Nov 2014 (Local Time) from K2G4 Reporting Station
Clear Clear  
Wind Chill: 31°   Ceiling: Unl
Heat Index: 37°   Visibility: 10mi
Dew Point: 19°   Wind: 9mph
Humidity: 48%   Direction: 270°W
Pressure: 30.03"   Gusts: NA
Location:  39.65°N, 79.53°W
Report Text: K2G4 252205Z AUTO 27008KT 10SM CLR 03/M07 A3003 RMK AO1
Loading
Personal Weather Stations






























Interactive Weather Map New forecast layout! Learn more

10-Day Weather Forecast

Advertisements
Track Severe Weather on mobile